Terminal Aerodrome Forecast
Issued by NWS Atlanta, GA

Home | Current Version | Previous Version | Text Only | Print | Product List | Glossary On
Versions: 1 2 3 4 5 6 7 8 9 10 11 12 13 14 15 16 17 18 19 20 21 22 23 24 25 26 27 28 29 30 31 32 33 34 35 36 37 38
361
FTUS42 KFFC 241947 AAB
TAFATL
TAF AMD
KATL 241947Z 2420/2524 28008KT P6SM VCSH BKN050 BKN100
      TEMPO 2420/2424 VRB15G25KT 4SM TSRA BKN035CB
     FM250000 26005KT P6SM SCT040 SCT150
     FM251200 30005KT P6SM VCSH SCT020 BKN200
     FM251500 32007KT P6SM VCSH BKN030 BKN100 PROB30 2515/2521 4SM
      -TSRA BKN025CB=

USA.gov is the U.S. government's official web portal to all federal, state and local government web resources and services.